createdAt,value
2017-04-24T00:00:36.863Z,1014.75
2017-04-24T00:01:36.829Z,1014.77
2017-04-24T00:02:36.810Z,1014.71
2017-04-24T00:03:36.784Z,1014.7
2017-04-24T00:04:36.761Z,1014.66
2017-04-24T00:05:36.738Z,1014.64
2017-04-24T00:06:36.718Z,1014.62
2017-04-24T00:07:36.701Z,1014.63
2017-04-24T00:08:36.672Z,1014.63
2017-04-24T00:09:36.651Z,1014.61
2017-04-24T00:10:36.631Z,1014.57
2017-04-24T00:11:36.603Z,1014.54
2017-04-24T00:12:36.581Z,1014.53
2017-04-24T00:13:36.561Z,1014.52
2017-04-24T00:14:36.548Z,1014.52
2017-04-24T00:15:36.511Z,1014.5
2017-04-24T00:16:36.489Z,1014.48
2017-04-24T00:17:36.474Z,1014.43
2017-04-24T00:18:36.450Z,1014.44
2017-04-24T00:19:36.431Z,1014.49
2017-04-24T00:20:36.400Z,1014.48
2017-04-24T00:21:36.379Z,1014.47
2017-04-24T00:22:36.357Z,1014.48
2017-04-24T00:23:36.343Z,1014.46
2017-04-24T00:24:36.312Z,1014.42
2017-04-24T00:25:36.291Z,1014.39
2017-04-24T00:26:36.265Z,1014.35
2017-04-24T00:27:36.238Z,1014.35
2017-04-24T00:28:36.218Z,1014.33
2017-04-24T00:29:36.202Z,1014.31
2017-04-24T00:30:36.171Z,1014.34
2017-04-24T00:31:36.147Z,1014.29
2017-04-24T00:32:36.134Z,1014.27
2017-04-24T00:33:36.105Z,1014.29
2017-04-24T00:34:36.083Z,1014.25
2017-04-24T00:35:36.057Z,1014.26
2017-04-24T00:36:36.035Z,1014.25
2017-04-24T00:37:36.010Z,1014.23
2017-04-24T00:38:35.986Z,1014.25
2017-04-24T00:39:35.966Z,1014.21
2017-04-24T00:40:35.943Z,1014.22
2017-04-24T00:41:35.924Z,1014.18
2017-04-24T00:42:35.899Z,1014.18
2017-04-24T00:43:35.882Z,1014.18
2017-04-24T00:44:35.851Z,1014.22
2017-04-24T00:45:35.830Z,1014.22
2017-04-24T00:46:35.812Z,1014.25
2017-04-24T00:47:35.789Z,1014.17
2017-04-24T00:48:35.762Z,1014.18
2017-04-24T00:49:35.744Z,1014.12
2017-04-24T00:50:35.721Z,1014.08
2017-04-24T00:51:35.691Z,1014.12
2017-04-24T00:52:35.667Z,1014.04
2017-04-24T00:53:35.649Z,1014.07
2017-04-24T00:54:35.622Z,1014.06
2017-04-24T00:55:35.600Z,1014.07
2017-04-24T00:56:35.575Z,1014.03
2017-04-24T00:57:35.550Z,1014.02
2017-04-24T00:58:35.532Z,1014
2017-04-24T00:59:35.503Z,1013.98
2017-04-24T01:00:35.481Z,1014
2017-04-24T01:01:35.471Z,1013.95
2017-04-24T01:02:35.434Z,1013.94
2017-04-24T01:03:35.413Z,1013.94
2017-04-24T01:04:35.411Z,1013.91
2017-04-24T01:05:35.372Z,1013.9
2017-04-24T01:06:35.343Z,1013.89
2017-04-24T01:07:35.316Z,1013.85
2017-04-24T01:08:35.298Z,1013.85
2017-04-24T01:09:35.270Z,1013.83
2017-04-24T01:10:35.251Z,1013.8
2017-04-24T01:11:35.229Z,1013.82
2017-04-24T01:12:35.200Z,1013.79
2017-04-24T01:13:35.180Z,1013.79
2017-04-24T01:14:35.151Z,1013.78
2017-04-24T01:15:35.129Z,1013.78
2017-04-24T01:16:35.110Z,1013.75
2017-04-24T01:17:35.086Z,1013.73
2017-04-24T01:18:35.062Z,1013.72
2017-04-24T01:19:35.037Z,1013.69
2017-04-24T01:20:35.012Z,1013.71
2017-04-24T01:21:34.990Z,1013.69
2017-04-24T01:22:34.966Z,1013.7
2017-04-24T01:23:34.942Z,1013.69
2017-04-24T01:24:34.919Z,1013.66
2017-04-24T01:25:34.897Z,1013.66
2017-04-24T01:26:34.871Z,1013.67
2017-04-24T01:27:34.850Z,1013.67
2017-04-24T01:28:34.824Z,1013.62
2017-04-24T01:29:34.800Z,1013.61
2017-04-24T01:30:34.777Z,1013.58
2017-04-24T01:31:34.757Z,1013.55
2017-04-24T01:32:34.729Z,1013.54
2017-04-24T01:33:34.713Z,1013.54
2017-04-24T01:34:34.684Z,1013.5
2017-04-24T01:35:34.662Z,1013.52
2017-04-24T01:36:34.634Z,1013.5
2017-04-24T01:37:34.612Z,1013.49
2017-04-24T01:38:34.597Z,1013.45
2017-04-24T01:39:34.571Z,1013.44
2017-04-24T01:40:34.551Z,1013.45
2017-04-24T01:41:34.521Z,1013.43
2017-04-24T01:42:34.502Z,1013.42
2017-04-24T01:43:34.471Z,1013.36
2017-04-24T01:44:34.453Z,1013.35
2017-04-24T01:45:34.431Z,1013.33
2017-04-24T01:46:34.402Z,1013.3
2017-04-24T01:47:34.384Z,1013.28
2017-04-24T01:48:34.353Z,1013.32
2017-04-24T01:49:34.331Z,1013.31
2017-04-24T01:50:34.307Z,1013.27
2017-04-24T01:51:34.284Z,1013.28
2017-04-24T01:52:34.261Z,1013.28
2017-04-24T01:53:34.247Z,1013.27
2017-04-24T01:54:34.216Z,1013.24
2017-04-24T01:55:34.191Z,1013.23
2017-04-24T01:56:34.170Z,1013.23
2017-04-24T01:57:34.145Z,1013.22
2017-04-24T01:58:34.122Z,1013.21
2017-04-24T01:59:34.102Z,1013.18
2017-04-24T02:00:34.071Z,1013.19
2017-04-24T02:01:34.051Z,1013.14
2017-04-24T02:02:34.032Z,1013.14
2017-04-24T02:03:34.011Z,1013.15
2017-04-24T02:04:33.977Z,1013.1
2017-04-24T02:05:33.952Z,1013.08
2017-04-24T02:06:33.932Z,1013.09
2017-04-24T02:07:33.910Z,1013.02
2017-04-24T02:08:33.884Z,1013.02
2017-04-24T02:09:33.858Z,1012.96
2017-04-24T02:10:33.840Z,1012.95
2017-04-24T02:11:33.811Z,1012.95
2017-04-24T02:12:33.789Z,1012.92
2017-04-24T02:13:33.771Z,1012.92
2017-04-24T02:14:33.742Z,1012.92
2017-04-24T02:15:33.725Z,1012.86
2017-04-24T02:16:33.692Z,1012.88
2017-04-24T02:17:33.672Z,1012.86
2017-04-24T02:18:33.649Z,1012.87
2017-04-24T02:19:33.645Z,1012.87
2017-04-24T02:20:33.598Z,1012.82
2017-04-24T02:21:33.584Z,1012.81
2017-04-24T02:22:33.551Z,1012.84
2017-04-24T02:23:33.527Z,1012.83
2017-04-24T02:24:33.501Z,1012.8
2017-04-24T02:25:33.483Z,1012.78
2017-04-24T02:26:33.456Z,1012.75
2017-04-24T02:27:33.431Z,1012.75
2017-04-24T02:28:33.424Z,1012.77
2017-04-24T02:29:33.389Z,1012.71
2017-04-24T02:30:33.360Z,1012.72
2017-04-24T02:31:33.335Z,1012.68
2017-04-24T02:32:33.308Z,1012.65
2017-04-24T02:33:33.293Z,1012.69
2017-04-24T02:34:33.262Z,1012.69
2017-04-24T02:35:33.240Z,1012.68
2017-04-24T02:36:33.218Z,1012.65
2017-04-24T02:37:33.193Z,1012.62
2017-04-24T02:38:33.171Z,1012.62
2017-04-24T02:39:33.143Z,1012.62
2017-04-24T02:40:33.121Z,1012.63
2017-04-24T02:41:33.100Z,1012.6
2017-04-24T02:42:33.071Z,1012.59
2017-04-24T02:43:33.047Z,1012.62
2017-04-24T02:44:33.024Z,1012.61
2017-04-24T02:45:33.000Z,1012.57
2017-04-24T02:46:32.981Z,1012.59
2017-04-24T02:47:32.951Z,1012.52
2017-04-24T02:48:32.932Z,1012.51
2017-04-24T02:49:32.901Z,1012.56
2017-04-24T02:50:32.879Z,1012.49
2017-04-24T02:51:32.861Z,1012.53
2017-04-24T02:52:32.829Z,1012.47
2017-04-24T02:53:32.808Z,1012.47
2017-04-24T02:54:32.792Z,1012.45
2017-04-24T02:55:32.762Z,1012.4
2017-04-24T02:56:32.741Z,1012.45
2017-04-24T02:57:32.712Z,1012.44
2017-04-24T02:58:32.692Z,1012.4
2017-04-24T02:59:32.673Z,1012.41
2017-04-24T03:00:32.642Z,1012.45
2017-04-24T03:01:32.616Z,1012.38
2017-04-24T03:02:32.599Z,1012.35
2017-04-24T03:03:32.574Z,1012.34
2017-04-24T03:04:32.548Z,1012.33
2017-04-24T03:05:32.523Z,1012.31
2017-04-24T03:06:32.501Z,1012.32
2017-04-24T03:07:32.482Z,1012.3
2017-04-24T03:08:32.455Z,1012.22
2017-04-24T03:09:32.427Z,1012.22
2017-04-24T03:10:32.402Z,1012.28
2017-04-24T03:11:32.381Z,1012.22
2017-04-24T03:12:32.353Z,1012.14
2017-04-24T03:13:32.331Z,1012.16
2017-04-24T03:14:32.308Z,1012.17
2017-04-24T03:15:32.282Z,1012.13
2017-04-24T03:16:32.265Z,1012.18
2017-04-24T03:17:32.238Z,1012.15
2017-04-24T03:18:32.212Z,1012.16
2017-04-24T03:19:32.191Z,1012.15
2017-04-24T03:20:32.163Z,1012.13
2017-04-24T03:21:32.141Z,1012.08
2017-04-24T03:22:32.122Z,1012.11
2017-04-24T03:23:32.095Z,1012.07
2017-04-24T03:24:32.074Z,1012.09
2017-04-24T03:25:32.043Z,1012.02
2017-04-24T03:26:32.016Z,1012.03
2017-04-24T03:27:32.001Z,1012
2017-04-24T03:28:31.973Z,1012.03
2017-04-24T03:29:31.955Z,1012.01
2017-04-24T03:30:31.922Z,1011.99
2017-04-24T03:31:31.901Z,1012.01
2017-04-24T03:32:31.877Z,1011.97
2017-04-24T03:33:31.851Z,1011.91
2017-04-24T03:34:31.824Z,1011.91
2017-04-24T03:35:31.802Z,1011.9
2017-04-24T03:36:31.778Z,1011.88
2017-04-24T03:37:31.754Z,1011.84
2017-04-24T03:38:31.730Z,1011.85
2017-04-24T03:39:31.711Z,1011.84
2017-04-24T03:40:31.732Z,1011.83
2017-04-24T03:41:31.660Z,1011.82
2017-04-24T03:42:31.633Z,1011.82
2017-04-24T03:43:31.606Z,1011.8
2017-04-24T03:44:31.642Z,1011.8
2017-04-24T03:45:31.562Z,1011.76
2017-04-24T03:46:31.542Z,1011.75
2017-04-24T03:47:31.511Z,1011.74
2017-04-24T03:48:31.492Z,1011.74
2017-04-24T03:49:31.463Z,1011.71
2017-04-24T03:50:31.492Z,1011.72
2017-04-24T03:51:31.429Z,1011.74
2017-04-24T03:52:31.393Z,1011.71
2017-04-24T03:53:31.368Z,1011.7
2017-04-24T03:54:31.353Z,1011.67
2017-04-24T03:55:31.322Z,1011.64
2017-04-24T03:56:31.299Z,1011.67
2017-04-24T03:57:31.270Z,1011.6
2017-04-24T03:58:31.253Z,1011.57
2017-04-24T03:59:31.222Z,1011.56
2017-04-24T04:00:31.206Z,1011.61
2017-04-24T04:01:31.182Z,1011.58
2017-04-24T04:02:31.226Z,1011.57
2017-04-24T04:03:31.131Z,1011.6
2017-04-24T04:04:31.103Z,1011.6
2017-04-24T04:05:31.080Z,1011.54
2017-04-24T04:06:31.065Z,1011.48
2017-04-24T04:07:31.029Z,1011.49
2017-04-24T04:08:31.013Z,1011.53
2017-04-24T04:09:30.982Z,1011.52
2017-04-24T04:10:30.966Z,1011.48
2017-04-24T04:11:30.932Z,1011.46
2017-04-24T04:12:30.911Z,1011.43
2017-04-24T04:13:30.892Z,1011.42
2017-04-24T04:14:30.862Z,1011.4
2017-04-24T04:15:30.846Z,1011.37
2017-04-24T04:16:30.814Z,1011.44
2017-04-24T04:17:30.792Z,1011.4
2017-04-24T04:18:30.771Z,1011.4
2017-04-24T04:19:30.741Z,1011.36
2017-04-24T04:20:30.719Z,1011.41
2017-04-24T04:21:30.695Z,1011.32
2017-04-24T04:22:30.671Z,1011.3
2017-04-24T04:23:30.642Z,1011.33
2017-04-24T04:24:30.620Z,1011.32
2017-04-24T04:25:30.596Z,1011.32
2017-04-24T04:26:30.570Z,1011.32
2017-04-24T04:27:30.552Z,1011.32
2017-04-24T04:28:30.523Z,1011.29
2017-04-24T04:29:30.502Z,1011.29
2017-04-24T04:30:30.472Z,1011.26
2017-04-24T04:31:30.451Z,1011.27
2017-04-24T04:32:30.429Z,1011.28
2017-04-24T04:33:30.402Z,1011.22
2017-04-24T04:34:30.377Z,1011.2
2017-04-24T04:35:30.352Z,1011.14
2017-04-24T04:36:30.334Z,1011.14
2017-04-24T04:37:30.303Z,1011.15
2017-04-24T04:38:30.288Z,1011.15
2017-04-24T04:39:30.261Z,1011.13
2017-04-24T04:40:30.232Z,1011.15
2017-04-24T04:41:30.209Z,1011.13
2017-04-24T04:42:30.190Z,1011.14
2017-04-24T04:43:30.159Z,1011.13
2017-04-24T04:44:30.137Z,1011.1
2017-04-24T04:45:30.111Z,1011.1
2017-04-24T04:46:30.093Z,1011.08
2017-04-24T04:47:30.062Z,1011.09
2017-04-24T04:48:30.041Z,1011.08
2017-04-24T04:49:30.011Z,1011.06
2017-04-24T04:50:29.994Z,1011.08
2017-04-24T04:51:29.971Z,1011.09
2017-04-24T04:52:29.942Z,1011.08
2017-04-24T04:53:29.919Z,1011.08
2017-04-24T04:54:29.896Z,1011.02
2017-04-24T04:55:29.875Z,1011.11
2017-04-24T04:56:29.848Z,1011.07
2017-04-24T04:57:29.818Z,1011.05
2017-04-24T04:58:29.794Z,1011.04
2017-04-24T04:59:29.773Z,1011.06
2017-04-24T05:00:29.746Z,1011.07
2017-04-24T05:01:29.722Z,1011.07
2017-04-24T05:02:29.701Z,1011
2017-04-24T05:03:29.675Z,1011.02
2017-04-24T05:04:29.653Z,1011.02
2017-04-24T05:05:29.627Z,1011.02
2017-04-24T05:06:29.619Z,1011
2017-04-24T05:07:29.582Z,1010.97
2017-04-24T05:08:29.552Z,1011
2017-04-24T05:09:29.531Z,1011.01
2017-04-24T05:10:29.505Z,1010.97
2017-04-24T05:11:29.481Z,1010.96
2017-04-24T05:12:29.462Z,1010.99
2017-04-24T05:13:29.486Z,1010.91
2017-04-24T05:14:29.413Z,1010.96
2017-04-24T05:15:29.395Z,1010.98
2017-04-24T05:16:29.362Z,1011.01
2017-04-24T05:17:29.345Z,1010.94
2017-04-24T05:18:29.316Z,1010.95
2017-04-24T05:19:29.292Z,1010.95
2017-04-24T05:20:29.273Z,1010.97
2017-04-24T05:21:29.244Z,1010.97
2017-04-24T05:22:29.223Z,1010.97
2017-04-24T05:23:29.202Z,1010.95
2017-04-24T05:24:29.172Z,1010.94
2017-04-24T05:25:29.160Z,1010.99
2017-04-24T05:26:29.123Z,1010.99
2017-04-24T05:27:29.113Z,1010.97
2017-04-24T05:28:29.079Z,1010.92
2017-04-24T05:29:29.160Z,1010.97
2017-04-24T05:30:29.034Z,1010.96
2017-04-24T05:31:29.008Z,1010.94
2017-04-24T05:32:28.983Z,1010.98
2017-04-24T05:33:28.963Z,1010.95
2017-04-24T05:34:28.947Z,1010.98
2017-04-24T05:35:28.913Z,1010.96
2017-04-24T05:36:28.888Z,1010.91
2017-04-24T05:37:28.868Z,1010.89
2017-04-24T05:38:28.846Z,1010.88
2017-04-24T05:39:28.835Z,1010.93
2017-04-24T05:40:28.798Z,1010.89
2017-04-24T05:41:28.772Z,1010.88
2017-04-24T05:42:28.748Z,1010.87
2017-04-24T05:43:28.721Z,1010.86
2017-04-24T05:44:28.701Z,1010.84
2017-04-24T05:45:28.684Z,1010.87
2017-04-24T05:46:28.654Z,1010.84
2017-04-24T05:47:28.631Z,1010.76
2017-04-24T05:48:28.613Z,1010.77
2017-04-24T05:49:28.584Z,1010.74
2017-04-24T05:50:28.561Z,1010.72
2017-04-24T05:51:28.543Z,1010.75
2017-04-24T05:52:28.513Z,1010.68
2017-04-24T05:53:28.487Z,1010.69
2017-04-24T05:54:28.469Z,1010.75
2017-04-24T05:55:28.440Z,1010.67
2017-04-24T05:56:28.417Z,1010.73
2017-04-24T05:57:28.396Z,1010.69
2017-04-24T05:58:28.372Z,1010.7
2017-04-24T05:59:28.353Z,1010.73
2017-04-24T06:00:28.323Z,1010.75
2017-04-24T06:01:28.302Z,1010.72
2017-04-24T06:02:28.282Z,1010.73
2017-04-24T06:03:28.258Z,1010.68
2017-04-24T06:04:28.232Z,1010.63
2017-04-24T06:05:28.211Z,1010.68
2017-04-24T06:06:28.194Z,1010.68
2017-04-24T06:07:28.161Z,1010.71
2017-04-24T06:08:28.143Z,1010.67
2017-04-24T06:09:28.137Z,1010.6
2017-04-24T06:10:28.093Z,1010.7
2017-04-24T06:11:28.074Z,1010.61
2017-04-24T06:12:28.050Z,1010.63
2017-04-24T06:13:28.027Z,1010.65
2017-04-24T06:14:28.014Z,1010.55
2017-04-24T06:15:27.983Z,1010.58
2017-04-24T06:16:27.960Z,1010.6
2017-04-24T06:17:27.945Z,1010.53
2017-04-24T06:18:27.913Z,1010.51
2017-04-24T06:19:27.894Z,1010.54
2017-04-24T06:20:27.874Z,1010.5
2017-04-24T06:21:27.845Z,1010.56
2017-04-24T06:22:27.822Z,1010.53
2017-04-24T06:23:27.803Z,1010.53
2017-04-24T06:24:27.781Z,1010.56
2017-04-24T06:25:27.752Z,1010.55
2017-04-24T06:26:27.736Z,1010.54
2017-04-24T06:27:27.712Z,1010.5
2017-04-24T06:28:27.691Z,1010.53
2017-04-24T06:29:27.669Z,1010.48
2017-04-24T06:30:27.643Z,1010.42
2017-04-24T06:31:27.621Z,1010.36
2017-04-24T06:32:27.602Z,1010.39
2017-04-24T06:33:27.572Z,1010.36
2017-04-24T06:34:27.552Z,1010.4
2017-04-24T06:35:27.527Z,1010.34
2017-04-24T06:36:27.509Z,1010.37
2017-04-24T06:37:27.481Z,1010.33
2017-04-24T06:38:27.462Z,1010.36
2017-04-24T06:39:27.436Z,1010.33
2017-04-24T06:40:27.421Z,1010.37
2017-04-24T06:41:27.394Z,1010.3
2017-04-24T06:42:27.372Z,1010.36
2017-04-24T06:43:27.347Z,1010.36
2017-04-24T06:44:27.330Z,1010.36
2017-04-24T06:45:27.306Z,1010.38
2017-04-24T06:46:27.284Z,1010.4
2017-04-24T06:47:27.262Z,1010.39
2017-04-24T06:48:27.239Z,1010.29
2017-04-24T06:49:27.215Z,1010.25
2017-04-24T06:50:27.193Z,1010.31
2017-04-24T06:51:27.171Z,1010.27
2017-04-24T06:52:27.154Z,1010.23
2017-04-24T06:53:27.132Z,1010.28
2017-04-24T06:54:27.136Z,1010.24
2017-04-24T06:55:27.081Z,1010.2
2017-04-24T06:56:27.063Z,1010.17
2017-04-24T06:57:27.037Z,1010.2
2017-04-24T06:58:27.015Z,1010.2
2017-04-24T06:59:26.995Z,1010.21
2017-04-24T07:00:26.971Z,1010.19
2017-04-24T07:01:26.951Z,1010.2
2017-04-24T07:02:26.928Z,1010.14
2017-04-24T07:03:26.906Z,1010.14
2017-04-24T07:04:26.884Z,1010.05
2017-04-24T07:05:26.863Z,1010.07
2017-04-24T07:06:26.845Z,1010.07
2017-04-24T07:07:26.816Z,1010.04
2017-04-24T07:08:26.796Z,1010
2017-04-24T07:09:26.783Z,1010.04
2017-04-24T07:10:26.752Z,1010.01
2017-04-24T07:11:26.733Z,1010.01
2017-04-24T07:12:26.713Z,1010.01
2017-04-24T07:13:26.692Z,1009.99
2017-04-24T07:14:26.665Z,1010
2017-04-24T07:15:26.652Z,1010.01
2017-04-24T07:16:26.623Z,1009.98
2017-04-24T07:17:26.602Z,1009.94
2017-04-24T07:18:26.589Z,1009.88
2017-04-24T07:19:26.569Z,1009.88
2017-04-24T07:20:26.534Z,1009.92
2017-04-24T07:21:26.516Z,1009.86
2017-04-24T07:22:26.496Z,1009.89
2017-04-24T07:23:26.472Z,1009.85
2017-04-24T07:24:26.447Z,1009.92
2017-04-24T07:25:26.435Z,1009.8
2017-04-24T07:26:26.407Z,1009.83
2017-04-24T07:27:26.378Z,1009.79
2017-04-24T07:28:26.364Z,1009.81
2017-04-24T07:29:26.340Z,1009.78
2017-04-24T07:30:26.315Z,1009.8
2017-04-24T07:31:26.292Z,1009.77
2017-04-24T07:32:26.273Z,1009.71
2017-04-24T07:33:26.254Z,1009.75
2017-04-24T07:34:26.227Z,1009.69
2017-04-24T07:35:26.207Z,1009.69
2017-04-24T07:36:26.195Z,1009.65
2017-04-24T07:37:26.174Z,1009.65
2017-04-24T07:38:26.144Z,1009.6
2017-04-24T07:39:26.124Z,1009.63
2017-04-24T07:40:26.099Z,1009.62
2017-04-24T07:41:26.082Z,1009.7
2017-04-24T07:42:26.063Z,1009.67
2017-04-24T07:43:26.043Z,1009.64
2017-04-24T07:44:26.024Z,1009.65
2017-04-24T07:45:25.992Z,1009.68
2017-04-24T07:46:25.973Z,1009.56
2017-04-24T07:47:25.952Z,1009.55
2017-04-24T07:48:25.927Z,1009.53
2017-04-24T07:49:25.918Z,1009.53
2017-04-24T07:50:25.895Z,1009.47
2017-04-24T07:51:25.872Z,1009.43
2017-04-24T07:52:25.893Z,1009.44
2017-04-24T07:53:25.822Z,1009.37
2017-04-24T07:54:25.845Z,1009.36
2017-04-24T07:55:25.782Z,1009.41
2017-04-24T07:56:25.812Z,1009.38
2017-04-24T07:57:25.744Z,1009.39
2017-04-24T07:58:25.723Z,1009.33
2017-04-24T07:59:25.704Z,1009.35
2017-04-24T08:00:25.732Z,1009.32
2017-04-24T08:01:25.665Z,1009.41
2017-04-24T08:02:25.653Z,1009.35
2017-04-24T08:03:25.614Z,1009.33
2017-04-24T08:04:25.642Z,1009.36
2017-04-24T08:05:25.573Z,1009.32
2017-04-24T08:06:25.559Z,1009.31
2017-04-24T08:07:25.528Z,1009.31
2017-04-24T08:08:25.573Z,1009.28
2017-04-24T08:09:25.488Z,1009.25
2017-04-24T08:10:25.473Z,1009.28
2017-04-24T08:11:25.453Z,1009.31
2017-04-24T08:12:25.483Z,1009.26
2017-04-24T08:13:25.414Z,1009.21
2017-04-24T08:14:25.495Z,1009.23
2017-04-24T08:15:25.370Z,1009.19
2017-04-24T08:16:25.453Z,1009.19
2017-04-24T08:17:25.330Z,1009.2
2017-04-24T08:18:25.313Z,1009.19
2017-04-24T08:19:25.288Z,1009.22
2017-04-24T08:20:25.373Z,1009.24
2017-04-24T08:21:25.242Z,1009.16
2017-04-24T08:22:25.231Z,1009.09
2017-04-24T08:23:25.202Z,1009.18
2017-04-24T08:24:25.186Z,1009.12
2017-04-24T08:25:25.165Z,1009.18
2017-04-24T08:26:25.147Z,1009.15
2017-04-24T08:27:25.133Z,1009.12
2017-04-24T08:28:25.146Z,1009.23
2017-04-24T08:29:25.087Z,1009.1
2017-04-24T08:30:25.068Z,1009.08
2017-04-24T08:31:25.045Z,1009.06
2017-04-24T08:32:25.032Z,1009.06
2017-04-24T08:33:25.007Z,1009.04
2017-04-24T08:34:24.992Z,1009.07
2017-04-24T08:35:24.974Z,1009.07
2017-04-24T08:36:24.951Z,1009.09
2017-04-24T08:37:24.931Z,1009.14
2017-04-24T08:38:24.910Z,1009.14
2017-04-24T08:39:24.893Z,1009.14
2017-04-24T08:40:24.871Z,1009.19
2017-04-24T08:41:24.857Z,1009.11
2017-04-24T08:42:24.847Z,1009.07
2017-04-24T08:43:24.819Z,1009.09
2017-04-24T08:44:24.801Z,1009.13
2017-04-24T08:45:24.783Z,1008.98
2017-04-24T08:46:24.771Z,1009
2017-04-24T08:47:24.748Z,1009.01
2017-04-24T08:48:24.732Z,1009.04
2017-04-24T08:49:24.714Z,1009.04
2017-04-24T08:50:24.701Z,1008.94
2017-04-24T08:51:24.682Z,1009.11
2017-04-24T08:52:24.658Z,1008.91
2017-04-24T08:53:24.642Z,1008.94
2017-04-24T08:54:24.629Z,1009.05
2017-04-24T08:55:24.613Z,1009.02
2017-04-24T08:56:24.592Z,1008.93
2017-04-24T08:57:24.578Z,1009.06
2017-04-24T08:58:24.560Z,1009.02
2017-04-24T08:59:24.542Z,1009.05
2017-04-24T09:00:24.530Z,1009.09
2017-04-24T09:01:24.517Z,1009.21
2017-04-24T09:02:24.502Z,1008.9
2017-04-24T09:03:24.486Z,1008.82
2017-04-24T09:04:24.472Z,1008.93
2017-04-24T09:05:24.462Z,1009.01
2017-04-24T09:06:24.447Z,1008.89
2017-04-24T09:07:24.431Z,1008.93
2017-04-24T09:08:24.422Z,1008.88
2017-04-24T09:09:24.401Z,1008.81
2017-04-24T09:10:24.392Z,1008.84
2017-04-24T09:11:24.378Z,1008.77
2017-04-24T09:12:24.364Z,1008.87
2017-04-24T09:13:24.351Z,1008.94
2017-04-24T09:14:24.338Z,1008.85
2017-04-24T09:15:24.330Z,1008.85
2017-04-24T09:16:24.312Z,1008.89
2017-04-24T09:17:24.300Z,1008.9
2017-04-24T09:18:24.293Z,1008.81
2017-04-24T09:19:24.281Z,1008.9
2017-04-24T09:20:24.274Z,1008.83
2017-04-24T09:21:24.258Z,1008.82
2017-04-24T09:22:24.251Z,1008.88
2017-04-24T09:23:24.239Z,1008.85
2017-04-24T09:24:24.229Z,1008.78
2017-04-24T09:25:24.211Z,1008.69
2017-04-24T09:26:24.205Z,1008.6
2017-04-24T09:27:24.191Z,1008.73
2017-04-24T09:28:24.185Z,1008.73
2017-04-24T09:29:24.166Z,1008.75
2017-04-24T09:30:24.166Z,1008.55
2017-04-24T09:31:24.146Z,1008.59
2017-04-24T09:32:24.144Z,1008.58
2017-04-24T09:33:24.127Z,1008.49
2017-04-24T09:34:24.122Z,1008.5
2017-04-24T09:35:24.103Z,1008.52
2017-04-24T09:36:24.093Z,1008.41
2017-04-24T09:37:24.083Z,1008.51
2017-04-24T09:38:24.075Z,1008.42
2017-04-24T09:39:24.060Z,1008.35
2017-04-24T09:40:24.057Z,1008.41
2017-04-24T09:41:24.044Z,1008.43
2017-04-24T09:42:24.032Z,1008.42
2017-04-24T09:43:24.023Z,1008.48
2017-04-24T09:44:24.015Z,1008.39
2017-04-24T09:45:24.006Z,1008.49
2017-04-24T09:46:23.991Z,1008.36
2017-04-24T09:47:23.992Z,1008.34
2017-04-24T09:48:23.970Z,1008.28
2017-04-24T09:49:23.964Z,1008.33
2017-04-24T09:50:23.952Z,1008.26
2017-04-24T09:51:23.944Z,1008.26
2017-04-24T09:52:23.942Z,1008.28
2017-04-24T09:53:23.922Z,1008.2
2017-04-24T09:54:23.916Z,1008.25
2017-04-24T09:55:23.971Z,1008.25
2017-04-24T09:56:23.884Z,1008.34
2017-04-24T09:57:23.885Z,1008.16
2017-04-24T09:58:23.864Z,1008.25
2017-04-24T09:59:23.902Z,1008.1
2017-04-24T10:00:23.844Z,1008.18
2017-04-24T10:01:23.833Z,1008.16
2017-04-24T10:02:23.820Z,1008.13
2017-04-24T10:03:23.913Z,1008.1
2017-04-24T10:04:23.792Z,1008.01
2017-04-24T10:05:23.831Z,1008.15
2017-04-24T10:06:23.772Z,1008.02
2017-04-24T10:07:23.811Z,1008.04
2017-04-24T10:08:23.750Z,1008.06
2017-04-24T10:09:23.738Z,1007.92
2017-04-24T10:10:23.719Z,1008.02
2017-04-24T10:11:23.710Z,1007.97
2017-04-24T10:12:23.693Z,1008
2017-04-24T10:13:23.684Z,1007.93
2017-04-24T10:14:23.668Z,1007.83
2017-04-24T10:15:23.653Z,1007.93
2017-04-24T10:16:23.640Z,1007.81
2017-04-24T10:17:23.630Z,1007.88
2017-04-24T10:18:23.612Z,1007.9
2017-04-24T10:19:23.598Z,1007.82
2017-04-24T10:20:23.586Z,1007.96
2017-04-24T10:21:23.571Z,1007.87
2017-04-24T10:22:23.563Z,1007.77
2017-04-24T10:23:23.542Z,1007.74
2017-04-24T10:24:23.533Z,1007.85
2017-04-24T10:25:23.518Z,1007.72
2017-04-24T10:26:23.502Z,1007.72
2017-04-24T10:27:23.490Z,1007.66
2017-04-24T10:28:23.477Z,1007.76
2017-04-24T10:29:23.461Z,1007.75
2017-04-24T10:30:23.448Z,1007.65
2017-04-24T10:31:23.432Z,1007.67
2017-04-24T10:32:23.426Z,1007.67
2017-04-24T10:33:23.405Z,1007.65
2017-04-24T10:34:23.395Z,1007.61
2017-04-24T10:35:23.382Z,1007.72
2017-04-24T10:36:23.362Z,1007.58
2017-04-24T10:37:23.352Z,1007.56
2017-04-24T10:38:23.338Z,1007.63
2017-04-24T10:39:23.325Z,1007.56
2017-04-24T10:40:23.337Z,1007.57
2017-04-24T10:41:23.297Z,1007.51
2017-04-24T10:42:23.284Z,1007.56
2017-04-24T10:43:23.275Z,1007.53
2017-04-24T10:44:23.259Z,1007.43
2017-04-24T10:45:23.242Z,1007.43
2017-04-24T10:46:23.234Z,1007.41
2017-04-24T10:47:23.222Z,1007.4
2017-04-24T10:48:23.200Z,1007.64
2017-04-24T10:49:23.196Z,1007.48
2017-04-24T10:50:23.172Z,1007.45
2017-04-24T10:51:23.163Z,1007.45
2017-04-24T10:52:23.152Z,1007.37
2017-04-24T10:53:23.134Z,1007.43
2017-04-24T10:54:23.124Z,1007.45
2017-04-24T10:55:23.103Z,1007.43
2017-04-24T10:56:23.093Z,1007.32
2017-04-24T10:57:23.083Z,1007.34
2017-04-24T10:58:23.073Z,1007.25
2017-04-24T10:59:23.055Z,1007.3
2017-04-24T11:00:23.034Z,1007.32
2017-04-24T11:01:23.022Z,1007.35
2017-04-24T11:02:23.019Z,1007.23
2017-04-24T11:03:22.992Z,1007.25
2017-04-24T11:04:22.982Z,1007.18
2017-04-24T11:05:22.963Z,1007.22
2017-04-24T11:06:22.953Z,1007.32
2017-04-24T11:07:22.944Z,1007.36
2017-04-24T11:08:22.922Z,1007.28
2017-04-24T11:09:22.910Z,1007.21
2017-04-24T11:10:22.894Z,1007.21
2017-04-24T11:11:22.881Z,1007.22
2017-04-24T11:12:22.881Z,1007.15
2017-04-24T11:13:22.848Z,1007.18
2017-04-24T11:14:22.841Z,1007.17
2017-04-24T11:15:22.817Z,1007.07
2017-04-24T11:16:22.808Z,1007
2017-04-24T11:17:22.790Z,1007.01
2017-04-24T11:18:22.783Z,1007.01
2017-04-24T11:19:22.762Z,1006.99
2017-04-24T11:20:22.749Z,1006.91
2017-04-24T11:21:22.731Z,1006.94
2017-04-24T11:22:22.723Z,1006.93
2017-04-24T11:23:22.711Z,1006.94
2017-04-24T11:24:22.691Z,1006.96
2017-04-24T11:25:22.683Z,1006.89
2017-04-24T11:26:22.661Z,1006.87
2017-04-24T11:27:22.653Z,1006.99
2017-04-24T11:28:22.641Z,1006.84
2017-04-24T11:29:22.619Z,1006.76
2017-04-24T11:30:22.612Z,1006.79
2017-04-24T11:31:22.592Z,1006.79
2017-04-24T11:32:22.584Z,1006.76
2017-04-24T11:33:22.563Z,1006.73
2017-04-24T11:34:22.552Z,1006.73
2017-04-24T11:35:22.542Z,1006.72
2017-04-24T11:36:22.519Z,1006.65
2017-04-24T11:37:22.513Z,1006.7
2017-04-24T11:38:22.492Z,1006.74
2017-04-24T11:39:22.481Z,1006.72
2017-04-24T11:40:22.465Z,1006.64
2017-04-24T11:41:22.452Z,1006.64
2017-04-24T11:42:22.432Z,1006.63
2017-04-24T11:43:22.422Z,1006.63
2017-04-24T11:44:22.411Z,1006.66
2017-04-24T11:45:22.396Z,1006.55
2017-04-24T11:46:22.378Z,1006.48
2017-04-24T11:47:22.362Z,1006.56
2017-04-24T11:48:22.354Z,1006.54
2017-04-24T11:49:22.338Z,1006.51
2017-04-24T11:50:22.320Z,1006.62
2017-04-24T11:51:22.309Z,1006.52
2017-04-24T11:52:22.292Z,1006.6
2017-04-24T11:53:22.283Z,1006.46
2017-04-24T11:54:22.272Z,1006.49
2017-04-24T11:55:22.257Z,1006.42
2017-04-24T11:56:22.236Z,1006.39
2017-04-24T11:57:22.221Z,1006.41
2017-04-24T11:58:22.214Z,1006.46
2017-04-24T11:59:22.191Z,1006.4
2017-04-24T12:00:22.183Z,1006.44
2017-04-24T12:01:22.166Z,1006.36
2017-04-24T12:02:22.146Z,1006.38
2017-04-24T12:03:22.134Z,1006.26
2017-04-24T12:04:22.120Z,1006.31
2017-04-24T12:05:22.102Z,1006.32
2017-04-24T12:06:22.089Z,1006.43
2017-04-24T12:07:22.072Z,1006.28
2017-04-24T12:08:22.063Z,1006.32